sensor_id;sensor_type;location;lat;lon;timestamp;temperature;humidity
2977;DHT22;1498;51.500;7.440;2022-11-11T00:00:34;11.80;99.90
2977;DHT22;1498;51.500;7.440;2022-11-11T00:03:00;11.70;99.90
2977;DHT22;1498;51.500;7.440;2022-11-11T00:05:26;11.70;99.90
2977;DHT22;1498;51.500;7.440;2022-11-11T00:07:53;11.80;99.90
2977;DHT22;1498;51.500;7.440;2022-11-11T00:10:27;11.80;99.90
2977;DHT22;1498;51.500;7.440;2022-11-11T00:12:53;11.90;99.90
2977;DHT22;1498;51.500;7.440;2022-11-11T00:15:19;12.00;99.90
2977;DHT22;1498;51.500;7.440;2022-11-11T00:17:44;12.00;99.90
2977;DHT22;1498;51.500;7.440;2022-11-11T00:20:29;12.10;99.90
2977;DHT22;1498;51.500;7.440;2022-11-11T00:23:20;12.00;99.90
2977;DHT22;1498;51.500;7.440;2022-11-11T00:26:05;12.10;99.90
2977;DHT22;1498;51.500;7.440;2022-11-11T00:28:31;11.90;99.90
2977;DHT22;1498;51.500;7.440;2022-11-11T00:31:01;11.80;99.90
2977;DHT22;1498;51.500;7.440;2022-11-11T00:33:27;11.70;99.90
2977;DHT22;1498;51.500;7.440;2022-11-11T00:35:53;11.80;99.90
2977;DHT22;1498;51.500;7.440;2022-11-11T00:38:19;11.60;99.90
2977;DHT22;1498;51.500;7.440;2022-11-11T00:41:18;11.60;99.90
2977;DHT22;1498;51.500;7.440;2022-11-11T00:43:45;11.50;99.90
2977;DHT22;1498;51.500;7.440;2022-11-11T00:46:12;11.40;99.90
2977;DHT22;1498;51.500;7.440;2022-11-11T00:48:57;11.40;99.90
2977;DHT22;1498;51.500;7.440;2022-11-11T00:51:41;11.40;99.90
2977;DHT22;1498;51.500;7.440;2022-11-11T00:54:07;11.30;99.90
2977;DHT22;1498;51.500;7.440;2022-11-11T00:56:33;11.30;99.90
2977;DHT22;1498;51.500;7.440;2022-11-11T00:59:02;11.30;99.90
2977;DHT22;1498;51.500;7.440;2022-11-11T01:01:28;11.30;99.90
2977;DHT22;1498;51.500;7.440;2022-11-11T01:03:53;11.30;99.90
2977;DHT22;1498;51.500;7.440;2022-11-11T01:06:19;11.20;99.90
2977;DHT22;1498;51.500;7.440;2022-11-11T01:08:44;11.20;99.90
2977;DHT22;1498;51.500;7.440;2022-11-11T01:11:14;11.30;99.90
2977;DHT22;1498;51.500;7.440;2022-11-11T01:13:41;11.30;99.90
2977;DHT22;1498;51.500;7.440;2022-11-11T01:16:11;11.30;99.90
2977;DHT22;1498;51.500;7.440;2022-11-11T01:18:37;11.30;99.90
2977;DHT22;1498;51.500;7.440;2022-11-11T01:21:11;11.30;99.90
2977;DHT22;1498;51.500;7.440;2022-11-11T01:23:38;11.30;99.90
2977;DHT22;1498;51.500;7.440;2022-11-11T01:26:14;11.30;99.90
2977;DHT22;1498;51.500;7.440;2022-11-11T01:28:41;11.30;99.90
2977;DHT22;1498;51.500;7.440;2022-11-11T01:31:09;11.30;99.90
2977;DHT22;1498;51.500;7.440;2022-11-11T05:32:09;11.20;99.90
2977;DHT22;1498;51.500;7.440;2022-11-11T05:34:35;11.20;99.90
2977;DHT22;1498;51.500;7.440;2022-11-11T05:37:00;11.10;99.90
2977;DHT22;1498;51.500;7.440;2022-11-11T05:39:26;11.10;99.90
2977;DHT22;1498;51.500;7.440;2022-11-11T05:41:52;11.20;99.90
2977;DHT22;1498;51.500;7.440;2022-11-11T05:44:17;11.20;99.90
2977;DHT22;1498;51.500;7.440;2022-11-11T05:46:43;11.20;99.90
2977;DHT22;1498;51.500;7.440;2022-11-11T05:49:08;11.20;99.90
2977;DHT22;1498;51.500;7.440;2022-11-11T05:51:40;11.30;99.90
2977;DHT22;1498;51.500;7.440;2022-11-11T05:54:05;11.40;99.90
2977;DHT22;1498;51.500;7.440;2022-11-11T05:56:31;11.30;99.90
2977;DHT22;1498;51.500;7.440;2022-11-11T05:58:56;11.30;99.90
2977;DHT22;1498;51.500;7.440;2022-11-11T06:01:22;11.30;99.90
2977;DHT22;1498;51.500;7.440;2022-11-11T06:03:48;11.30;99.90
2977;DHT22;1498;51.500;7.440;2022-11-11T06:06:13;11.30;99.90
2977;DHT22;1498;51.500;7.440;2022-11-11T06:08:39;11.30;99.90
2977;DHT22;1498;51.500;7.440;2022-11-11T06:11:05;11.40;99.90
2977;DHT22;1498;51.500;7.440;2022-11-11T06:13:30;11.50;99.90
2977;DHT22;1498;51.500;7.440;2022-11-11T06:15:57;11.40;99.90
2977;DHT22;1498;51.500;7.440;2022-11-11T06:18:23;11.40;99.90
2977;DHT22;1498;51.500;7.440;2022-11-11T06:20:53;11.40;99.90
2977;DHT22;1498;51.500;7.440;2022-11-11T06:23:18;11.40;99.90
2977;DHT22;1498;51.500;7.440;2022-11-11T06:25:44;11.40;99.90
2977;DHT22;1498;51.500;7.440;2022-11-11T06:28:28;11.30;99.90
2977;DHT22;1498;51.500;7.440;2022-11-11T06:30:53;11.30;99.90
2977;DHT22;1498;51.500;7.440;2022-11-11T06:33:19;11.30;99.90
2977;DHT22;1498;51.500;7.440;2022-11-11T06:35:45;11.30;99.90
2977;DHT22;1498;51.500;7.440;2022-11-11T06:38:11;11.30;99.90
2977;DHT22;1498;51.500;7.440;2022-11-11T06:40:37;11.30;99.90
2977;DHT22;1498;51.500;7.440;2022-11-11T06:43:02;11.30;99.90
2977;DHT22;1498;51.500;7.440;2022-11-11T06:45:30;11.20;99.90
2977;DHT22;1498;51.500;7.440;2022-11-11T06:47:56;11.20;99.90
2977;DHT22;1498;51.500;7.440;2022-11-11T06:50:21;11.20;99.90
2977;DHT22;1498;51.500;7.440;2022-11-11T06:52:47;11.10;99.90
2977;DHT22;1498;51.500;7.440;2022-11-11T06:55:13;11.10;99.90
2977;DHT22;1498;51.500;7.440;2022-11-11T06:57:39;11.20;99.90
2977;DHT22;1498;51.500;7.440;2022-11-11T07:00:05;11.20;99.90
2977;DHT22;1498;51.500;7.440;2022-11-11T07:02:31;11.20;99.90
2977;DHT22;1498;51.500;7.440;2022-11-11T07:04:56;11.20;99.90
2977;DHT22;1498;51.500;7.440;2022-11-11T07:07:22;11.20;99.90
2977;DHT22;1498;51.500;7.440;2022-11-11T07:09:48;11.20;99.90
2977;DHT22;1498;51.500;7.440;2022-11-11T07:12:13;11.20;99.90
2977;DHT22;1498;51.500;7.440;2022-11-11T07:14:39;11.20;99.90
2977;DHT22;1498;51.500;7.440;2022-11-11T07:17:04;11.20;99.90
2977;DHT22;1498;51.500;7.440;2022-11-11T07:19:30;11.30;99.90
2977;DHT22;1498;51.500;7.440;2022-11-11T07:21:56;11.20;99.90
2977;DHT22;1498;51.500;7.440;2022-11-11T07:24:21;11.30;99.90
2977;DHT22;1498;51.500;7.440;2022-11-11T07:26:47;11.30;99.90
2977;DHT22;1498;51.500;7.440;2022-11-11T07:29:12;11.30;99.90
2977;DHT22;1498;51.500;7.440;2022-11-11T07:31:40;11.20;99.90
2977;DHT22;1498;51.500;7.440;2022-11-11T07:34:06;11.20;99.90
2977;DHT22;1498;51.500;7.440;2022-11-11T07:36:31;11.20;99.90
2977;DHT22;1498;51.500;7.440;2022-11-11T07:38:57;11.20;99.90
2977;DHT22;1498;51.500;7.440;2022-11-11T07:41:22;11.20;99.90
2977;DHT22;1498;51.500;7.440;2022-11-11T07:43:48;11.30;99.90
2977;DHT22;1498;51.500;7.440;2022-11-11T07:46:14;11.30;99.90
2977;DHT22;1498;51.500;7.440;2022-11-11T07:48:39;11.30;99.90
2977;DHT22;1498;51.500;7.440;2022-11-11T07:51:05;11.30;99.90
2977;DHT22;1498;51.500;7.440;2022-11-11T07:53:30;11.30;99.90
2977;DHT22;1498;51.500;7.440;2022-11-11T07:55:56;11.40;99.90
2977;DHT22;1498;51.500;7.440;2022-11-11T07:58:22;11.50;99.90
2977;DHT22;1498;51.500;7.440;2022-11-11T08:00:47;11.50;99.90
2977;DHT22;1498;51.500;7.440;2022-11-11T08:03:13;11.60;99.90
2977;DHT22;1498;51.500;7.440;2022-11-11T08:05:38;11.70;99.90
2977;DHT22;1498;51.500;7.440;2022-11-11T08:08:05;11.70;99.90
2977;DHT22;1498;51.500;7.440;2022-11-11T08:10:32;11.70;99.90
2977;DHT22;1498;51.500;7.440;2022-11-11T08:12:57;11.80;99.90
2977;DHT22;1498;51.500;7.440;2022-11-11T08:15:42;11.80;99.90
2977;DHT22;1498;51.500;7.440;2022-11-11T08:18:08;11.90;99.90
2977;DHT22;1498;51.500;7.440;2022-11-11T08:20:34;11.90;99.90
2977;DHT22;1498;51.500;7.440;2022-11-11T08:22:59;11.90;99.90
2977;DHT22;1498;51.500;7.440;2022-11-11T08:25:28;12.00;99.90
2977;DHT22;1498;51.500;7.440;2022-11-11T08:27:58;12.20;99.90
2977;DHT22;1498;51.500;7.440;2022-11-11T08:30:24;12.10;99.90
2977;DHT22;1498;51.500;7.440;2022-11-11T08:32:59;12.20;99.90
2977;DHT22;1498;51.500;7.440;2022-11-11T08:35:25;12.10;99.90
2977;DHT22;1498;51.500;7.440;2022-11-11T08:37:51;12.20;99.90
2977;DHT22;1498;51.500;7.440;2022-11-11T08:40:18;12.30;99.90
2977;DHT22;1498;51.500;7.440;2022-11-11T08:42:44;12.30;99.90
2977;DHT22;1498;51.500;7.440;2022-11-11T08:45:09;12.40;99.90
2977;DHT22;1498;51.500;7.440;2022-11-11T08:47:35;12.50;99.90
2977;DHT22;1498;51.500;7.440;2022-11-11T08:50:02;12.60;99.90
2977;DHT22;1498;51.500;7.440;2022-11-11T08:52:28;12.60;99.90
2977;DHT22;1498;51.500;7.440;2022-11-11T08:54:53;12.70;99.90
2977;DHT22;1498;51.500;7.440;2022-11-11T08:57:19;12.80;99.90
2977;DHT22;1498;51.500;7.440;2022-11-11T08:59:45;12.90;99.90
2977;DHT22;1498;51.500;7.440;2022-11-11T09:02:11;12.90;99.90
2977;DHT22;1498;51.500;7.440;2022-11-11T09:04:38;13.00;99.90
2977;DHT22;1498;51.500;7.440;2022-11-11T09:07:04;13.00;99.90
2977;DHT22;1498;51.500;7.440;2022-11-11T09:09:30;13.10;99.90
2977;DHT22;1498;51.500;7.440;2022-11-11T09:11:56;13.20;99.90
2977;DHT22;1498;51.500;7.440;2022-11-11T09:14:21;13.30;99.90
2977;DHT22;1498;51.500;7.440;2022-11-11T09:16:47;13.50;99.90
2977;DHT22;1498;51.500;7.440;2022-11-11T09:19:12;13.50;99.90
2977;DHT22;1498;51.500;7.440;2022-11-11T09:21:38;13.70;99.90
2977;DHT22;1498;51.500;7.440;2022-11-11T09:24:04;13.70;99.90
2977;DHT22;1498;51.500;7.440;2022-11-11T09:26:29;13.80;99.90
2977;DHT22;1498;51.500;7.440;2022-11-11T09:28:55;13.90;99.90
2977;DHT22;1498;51.500;7.440;2022-11-11T09:31:21;14.00;99.90
2977;DHT22;1498;51.500;7.440;2022-11-11T09:33:49;14.10;99.90
2977;DHT22;1498;51.500;7.440;2022-11-11T09:36:14;14.20;99.90
2977;DHT22;1498;51.500;7.440;2022-11-11T09:38:40;14.20;99.90
2977;DHT22;1498;51.500;7.440;2022-11-11T09:44:20;14.20;99.90
2977;DHT22;1498;51.500;7.440;2022-11-11T09:52:17;14.40;99.90
2977;DHT22;1498;51.500;7.440;2022-11-11T09:54:57;14.40;99.90
2977;DHT22;1498;51.500;7.440;2022-11-11T09:57:35;14.30;99.90
2977;DHT22;1498;51.500;7.440;2022-11-11T10:00:13;14.40;99.90
2977;DHT22;1498;51.500;7.440;2022-11-11T10:03:27;14.50;99.90
2977;DHT22;1498;51.500;7.440;2022-11-11T10:05:46;14.50;99.90
2977;DHT22;1498;51.500;7.440;2022-11-11T10:08:19;14.60;99.90
2977;DHT22;1498;51.500;7.440;2022-11-11T10:10:48;14.60;99.90
2977;DHT22;1498;51.500;7.440;2022-11-11T10:13:17;14.70;99.90
2977;DHT22;1498;51.500;7.440;2022-11-11T10:21:14;14.70;99.90
2977;DHT22;1498;51.500;7.440;2022-11-11T10:23:44;14.70;99.90
2977;DHT22;1498;51.500;7.440;2022-11-11T10:26:37;14.60;99.90
2977;DHT22;1498;51.500;7.440;2022-11-11T10:29:10;14.60;99.90
2977;DHT22;1498;51.500;7.440;2022-11-11T10:31:38;14.70;99.90
2977;DHT22;1498;51.500;7.440;2022-11-11T10:34:10;14.70;99.90
2977;DHT22;1498;51.500;7.440;2022-11-11T10:36:52;14.70;99.90
2977;DHT22;1498;51.500;7.440;2022-11-11T10:39:27;14.90;99.90
2977;DHT22;1498;51.500;7.440;2022-11-11T10:41:56;14.90;99.90
2977;DHT22;1498;51.500;7.440;2022-11-11T10:44:24;14.90;99.90
2977;DHT22;1498;51.500;7.440;2022-11-11T10:47:08;15.00;99.90
2977;DHT22;1498;51.500;7.440;2022-11-11T10:49:39;15.00;99.90
2977;DHT22;1498;51.500;7.440;2022-11-11T10:52:16;15.00;99.90
2977;DHT22;1498;51.500;7.440;2022-11-11T10:54:51;15.10;99.90
2977;DHT22;1498;51.500;7.440;2022-11-11T10:57:33;15.30;99.90
2977;DHT22;1498;51.500;7.440;2022-11-11T11:00:06;15.20;99.90
2977;DHT22;1498;51.500;7.440;2022-11-11T11:02:33;15.20;99.90
2977;DHT22;1498;51.500;7.440;2022-11-11T11:05:07;15.30;99.90
2977;DHT22;1498;51.500;7.440;2022-11-11T11:07:44;15.40;99.90
2977;DHT22;1498;51.500;7.440;2022-11-11T11:10:27;15.40;99.90
2977;DHT22;1498;51.500;7.440;2022-11-11T11:13:03;15.40;99.90
2977;DHT22;1498;51.500;7.440;2022-11-11T11:15:35;15.40;99.90
2977;DHT22;1498;51.500;7.440;2022-11-11T11:18:14;15.50;99.90
2977;DHT22;1498;51.500;7.440;2022-11-11T11:21:03;15.70;99.90
2977;DHT22;1498;51.500;7.440;2022-11-11T11:23:40;15.90;99.90
2977;DHT22;1498;51.500;7.440;2022-11-11T11:26:08;15.90;99.90
2977;DHT22;1498;51.500;7.440;2022-11-11T11:28:34;15.90;99.90
2977;DHT22;1498;51.500;7.440;2022-11-11T11:31:07;16.20;99.90
2977;DHT22;1498;51.500;7.440;2022-11-11T11:33:51;16.40;99.90
2977;DHT22;1498;51.500;7.440;2022-11-11T11:36:18;16.50;99.90
2977;DHT22;1498;51.500;7.440;2022-11-11T11:38:46;16.60;99.90
2977;DHT22;1498;51.500;7.440;2022-11-11T11:41:15;16.80;99.90
2977;DHT22;1498;51.500;7.440;2022-11-11T11:43:41;17.00;99.90
2977;DHT22;1498;51.500;7.440;2022-11-11T11:46:28;17.20;99.90
2977;DHT22;1498;51.500;7.440;2022-11-11T11:52:15;17.20;99.90
2977;DHT22;1498;51.500;7.440;2022-11-11T11:55:04;17.10;99.90
2977;DHT22;1498;51.500;7.440;2022-11-11T12:00:18;17.20;99.90
2977;DHT22;1498;51.500;7.440;2022-11-11T12:05:21;17.20;99.90
2977;DHT22;1498;51.500;7.440;2022-11-11T12:16:25;17.00;99.90
2977;DHT22;1498;51.500;7.440;2022-11-11T12:21:47;16.80;99.90
2977;DHT22;1498;51.500;7.440;2022-11-11T12:43:55;16.80;99.90
2977;DHT22;1498;51.500;7.440;2022-11-11T12:52:12;16.90;99.30
2977;DHT22;1498;51.500;7.440;2022-11-11T13:05:58;16.70;98.50
2977;DHT22;1498;51.500;7.440;2022-11-11T13:11:13;16.80;97.50
2977;DHT22;1498;51.500;7.440;2022-11-11T13:14:02;16.70;98.10
2977;DHT22;1498;51.500;7.440;2022-11-11T13:16:30;16.70;97.30
2977;DHT22;1498;51.500;7.440;2022-11-11T13:21:54;16.90;97.40
2977;DHT22;1498;51.500;7.440;2022-11-11T13:24:22;17.10;97.50
2977;DHT22;1498;51.500;7.440;2022-11-11T13:27:04;17.10;97.20
2977;DHT22;1498;51.500;7.440;2022-11-11T13:29:54;17.20;96.80
2977;DHT22;1498;51.500;7.440;2022-11-11T13:32:28;17.40;99.90
2977;DHT22;1498;51.500;7.440;2022-11-11T13:34:56;17.50;97.10
2977;DHT22;1498;51.500;7.440;2022-11-11T13:37:30;17.50;98.60
2977;DHT22;1498;51.500;7.440;2022-11-11T13:40:06;17.60;99.90
2977;DHT22;1498;51.500;7.440;2022-11-11T13:42:39;17.60;98.80
2977;DHT22;1498;51.500;7.440;2022-11-11T13:45:32;17.60;99.90
2977;DHT22;1498;51.500;7.440;2022-11-11T13:47:59;17.60;97.90
2977;DHT22;1498;51.500;7.440;2022-11-11T13:50:29;17.50;98.10
2977;DHT22;1498;51.500;7.440;2022-11-11T13:53:04;17.40;98.20
2977;DHT22;1498;51.500;7.440;2022-11-11T13:55:44;17.40;99.90
2977;DHT22;1498;51.500;7.440;2022-11-11T13:58:29;17.40;99.90
2977;DHT22;1498;51.500;7.440;2022-11-11T14:00:58;17.40;99.90
2977;DHT22;1498;51.500;7.440;2022-11-11T14:13:50;17.10;98.40
2977;DHT22;1498;51.500;7.440;2022-11-11T14:19:25;16.80;98.00
2977;DHT22;1498;51.500;7.440;2022-11-11T14:21:53;16.60;97.80
2977;DHT22;1498;51.500;7.440;2022-11-11T14:29:51;16.30;99.50
2977;DHT22;1498;51.500;7.440;2022-11-11T14:32:39;16.20;99.90
2977;DHT22;1498;51.500;7.440;2022-11-11T14:40:31;15.90;99.90
2977;DHT22;1498;51.500;7.440;2022-11-11T14:42:59;15.80;99.90
2977;DHT22;1498;51.500;7.440;2022-11-11T14:47:53;15.70;99.90
2977;DHT22;1498;51.500;7.440;2022-11-11T14:52:57;15.60;99.90
2977;DHT22;1498;51.500;7.440;2022-11-11T14:55:37;15.60;99.90
2977;DHT22;1498;51.500;7.440;2022-11-11T15:03:25;15.40;99.90
2977;DHT22;1498;51.500;7.440;2022-11-11T15:06:25;15.30;99.90
2977;DHT22;1498;51.500;7.440;2022-11-11T15:17:16;15.00;99.90
2977;DHT22;1498;51.500;7.440;2022-11-11T15:23:07;15.00;99.90
2977;DHT22;1498;51.500;7.440;2022-11-11T15:34:05;14.80;99.90
2977;DHT22;1498;51.500;7.440;2022-11-11T15:37:00;14.70;99.90
2977;DHT22;1498;51.500;7.440;2022-11-11T15:39:42;14.60;99.90
2977;DHT22;1498;51.500;7.440;2022-11-11T15:42:12;14.60;99.90
2977;DHT22;1498;51.500;7.440;2022-11-11T15:44:38;14.50;99.90
2977;DHT22;1498;51.500;7.440;2022-11-11T15:47:04;14.40;99.90
2977;DHT22;1498;51.500;7.440;2022-11-11T15:49:42;14.30;99.90
2977;DHT22;1498;51.500;7.440;2022-11-11T15:52:31;14.20;99.90
2977;DHT22;1498;51.500;7.440;2022-11-11T15:54:58;14.10;99.90
2977;DHT22;1498;51.500;7.440;2022-11-11T15:57:30;14.00;99.90
2977;DHT22;1498;51.500;7.440;2022-11-11T16:00:00;13.90;99.90
2977;DHT22;1498;51.500;7.440;2022-11-11T16:02:29;13.90;99.90
2977;DHT22;1498;51.500;7.440;2022-11-11T16:04:59;13.80;99.90
2977;DHT22;1498;51.500;7.440;2022-11-11T16:07:35;13.70;99.90
2977;DHT22;1498;51.500;7.440;2022-11-11T16:10:19;13.60;99.90
2977;DHT22;1498;51.500;7.440;2022-11-11T16:15:39;13.50;99.90
2977;DHT22;1498;51.500;7.440;2022-11-11T16:18:17;13.40;99.90
2977;DHT22;1498;51.500;7.440;2022-11-11T16:21:06;13.30;99.90
2977;DHT22;1498;51.500;7.440;2022-11-11T16:23:34;13.30;99.90
2977;DHT22;1498;51.500;7.440;2022-11-11T16:26:01;13.20;99.90
2977;DHT22;1498;51.500;7.440;2022-11-11T16:31:28;13.10;99.90
2977;DHT22;1498;51.500;7.440;2022-11-11T16:33:56;13.00;99.90
2977;DHT22;1498;51.500;7.440;2022-11-11T16:36:21;12.90;99.90
2977;DHT22;1498;51.500;7.440;2022-11-11T16:38:47;12.80;99.90
2977;DHT22;1498;51.500;7.440;2022-11-11T16:41:27;12.70;99.90
2977;DHT22;1498;51.500;7.440;2022-11-11T16:43:54;12.70;99.90
2977;DHT22;1498;51.500;7.440;2022-11-11T16:46:38;12.60;99.90
2977;DHT22;1498;51.500;7.440;2022-11-11T16:49:27;12.50;99.90
2977;DHT22;1498;51.500;7.440;2022-11-11T16:51:55;12.50;99.90
2977;DHT22;1498;51.500;7.440;2022-11-11T16:54:24;12.40;99.90
2977;DHT22;1498;51.500;7.440;2022-11-11T16:56:54;12.30;99.90
2977;DHT22;1498;51.500;7.440;2022-11-11T16:59:39;12.30;99.90
2977;DHT22;1498;51.500;7.440;2022-11-11T17:02:16;12.20;99.90
2977;DHT22;1498;51.500;7.440;2022-11-11T17:04:47;12.10;99.90
2977;DHT22;1498;51.500;7.440;2022-11-11T17:07:34;12.10;99.90
2977;DHT22;1498;51.500;7.440;2022-11-11T17:10:19;12.00;99.90
2977;DHT22;1498;51.500;7.440;2022-11-11T17:12:45;11.90;99.90
2977;DHT22;1498;51.500;7.440;2022-11-11T17:15:18;11.90;99.90
2977;DHT22;1498;51.500;7.440;2022-11-11T17:17:44;11.90;99.90
2977;DHT22;1498;51.500;7.440;2022-11-11T17:20:17;11.80;99.90
2977;DHT22;1498;51.500;7.440;2022-11-11T17:22:55;11.70;99.90
2977;DHT22;1498;51.500;7.440;2022-11-11T17:25:21;11.80;99.90
2977;DHT22;1498;51.500;7.440;2022-11-11T17:27:47;11.70;99.90
2977;DHT22;1498;51.500;7.440;2022-11-11T17:30:13;11.70;99.90
2977;DHT22;1498;51.500;7.440;2022-11-11T17:32:38;11.80;99.90
2977;DHT22;1498;51.500;7.440;2022-11-11T17:35:05;11.80;99.90
2977;DHT22;1498;51.500;7.440;2022-11-11T17:37:34;11.80;99.90
2977;DHT22;1498;51.500;7.440;2022-11-11T17:40:05;11.80;99.90
2977;DHT22;1498;51.500;7.440;2022-11-11T17:42:32;11.90;99.90
2977;DHT22;1498;51.500;7.440;2022-11-11T17:44:58;12.00;99.90
2977;DHT22;1498;51.500;7.440;2022-11-11T17:47:23;12.00;99.90
2977;DHT22;1498;51.500;7.440;2022-11-11T17:49:49;11.90;99.90
2977;DHT22;1498;51.500;7.440;2022-11-11T17:52:15;11.90;99.90
2977;DHT22;1498;51.500;7.440;2022-11-11T17:54:41;11.80;99.90
2977;DHT22;1498;51.500;7.440;2022-11-11T17:57:07;11.90;99.90
2977;DHT22;1498;51.500;7.440;2022-11-11T17:59:33;11.90;99.90
2977;DHT22;1498;51.500;7.440;2022-11-11T18:01:58;11.90;99.90
2977;DHT22;1498;51.500;7.440;2022-11-11T18:04:24;11.90;99.90
2977;DHT22;1498;51.500;7.440;2022-11-11T18:06:50;11.90;99.90
2977;DHT22;1498;51.500;7.440;2022-11-11T18:09:16;11.90;99.90
2977;DHT22;1498;51.500;7.440;2022-11-11T18:11:41;11.90;99.90
2977;DHT22;1498;51.500;7.440;2022-11-11T18:14:07;11.90;99.90
2977;DHT22;1498;51.500;7.440;2022-11-11T18:16:32;11.90;99.90
2977;DHT22;1498;51.500;7.440;2022-11-11T18:18:58;11.90;99.90
2977;DHT22;1498;51.500;7.440;2022-11-11T18:21:26;11.90;99.90
2977;DHT22;1498;51.500;7.440;2022-11-11T18:23:52;11.90;99.90
2977;DHT22;1498;51.500;7.440;2022-11-11T18:26:18;11.90;99.90
2977;DHT22;1498;51.500;7.440;2022-11-11T18:28:43;11.90;99.90
2977;DHT22;1498;51.500;7.440;2022-11-11T18:31:11;11.90;99.90
2977;DHT22;1498;51.500;7.440;2022-11-11T18:33:38;11.80;99.90
2977;DHT22;1498;51.500;7.440;2022-11-11T18:36:14;11.80;99.90
2977;DHT22;1498;51.500;7.440;2022-11-11T18:38:40;11.80;99.90
2977;DHT22;1498;51.500;7.440;2022-11-11T18:41:08;11.80;99.90
2977;DHT22;1498;51.500;7.440;2022-11-11T18:43:45;11.80;99.90
2977;DHT22;1498;51.500;7.440;2022-11-11T18:46:20;11.80;99.90
2977;DHT22;1498;51.500;7.440;2022-11-11T18:48:45;11.70;99.90
2977;DHT22;1498;51.500;7.440;2022-11-11T18:51:16;11.80;99.90
2977;DHT22;1498;51.500;7.440;2022-11-11T18:53:42;11.70;99.90
2977;DHT22;1498;51.500;7.440;2022-11-11T18:56:10;11.70;99.90
2977;DHT22;1498;51.500;7.440;2022-11-11T18:58:36;11.70;99.90
2977;DHT22;1498;51.500;7.440;2022-11-11T19:01:13;11.70;99.90
2977;DHT22;1498;51.500;7.440;2022-11-11T19:03:47;11.80;99.90
2977;DHT22;1498;51.500;7.440;2022-11-11T19:06:12;11.80;99.90
2977;DHT22;1498;51.500;7.440;2022-11-11T19:08:38;11.80;99.90
2977;DHT22;1498;51.500;7.440;2022-11-11T19:11:06;11.80;99.90
2977;DHT22;1498;51.500;7.440;2022-11-11T19:13:33;11.70;99.90
2977;DHT22;1498;51.500;7.440;2022-11-11T19:16:05;11.70;99.90
2977;DHT22;1498;51.500;7.440;2022-11-11T19:18:30;11.70;99.90
2977;DHT22;1498;51.500;7.440;2022-11-11T19:20:56;11.70;99.90
2977;DHT22;1498;51.500;7.440;2022-11-11T19:23:22;11.80;99.90
2977;DHT22;1498;51.500;7.440;2022-11-11T19:25:47;11.80;99.90
2977;DHT22;1498;51.500;7.440;2022-11-11T19:28:13;11.90;99.90
2977;DHT22;1498;51.500;7.440;2022-11-11T19:30:39;11.90;99.90
2977;DHT22;1498;51.500;7.440;2022-11-11T19:33:06;11.80;99.90
2977;DHT22;1498;51.500;7.440;2022-11-11T19:35:32;11.80;99.90
2977;DHT22;1498;51.500;7.440;2022-11-11T19:37:57;11.70;99.90
2977;DHT22;1498;51.500;7.440;2022-11-11T19:40:23;11.70;99.90
2977;DHT22;1498;51.500;7.440;2022-11-11T19:42:49;11.70;99.90
2977;DHT22;1498;51.500;7.440;2022-11-11T19:45:15;11.70;99.90
2977;DHT22;1498;51.500;7.440;2022-11-11T19:47:41;11.70;99.90
2977;DHT22;1498;51.500;7.440;2022-11-11T19:50:06;11.70;99.90
2977;DHT22;1498;51.500;7.440;2022-11-11T19:52:32;11.60;99.90
2977;DHT22;1498;51.500;7.440;2022-11-11T19:54:58;11.60;99.90
2977;DHT22;1498;51.500;7.440;2022-11-11T19:57:23;11.60;99.90
2977;DHT22;1498;51.500;7.440;2022-11-11T19:59:50;11.60;99.90
2977;DHT22;1498;51.500;7.440;2022-11-11T20:02:16;11.60;99.90
2977;DHT22;1498;51.500;7.440;2022-11-11T20:04:41;11.60;99.90
2977;DHT22;1498;51.500;7.440;2022-11-11T20:07:07;11.70;99.90
2977;DHT22;1498;51.500;7.440;2022-11-11T20:09:33;11.70;99.90
2977;DHT22;1498;51.500;7.440;2022-11-11T20:11:59;11.70;99.90
2977;DHT22;1498;51.500;7.440;2022-11-11T20:14:25;11.70;99.90
2977;DHT22;1498;51.500;7.440;2022-11-11T20:16:51;11.70;99.90
2977;DHT22;1498;51.500;7.440;2022-11-11T20:19:16;11.70;99.90
2977;DHT22;1498;51.500;7.440;2022-11-11T20:21:42;11.70;99.90
2977;DHT22;1498;51.500;7.440;2022-11-11T20:24:10;11.70;99.90
2977;DHT22;1498;51.500;7.440;2022-11-11T20:26:36;11.70;99.90
2977;DHT22;1498;51.500;7.440;2022-11-11T20:29:02;11.70;99.90
2977;DHT22;1498;51.500;7.440;2022-11-11T20:31:27;11.70;99.90
2977;DHT22;1498;51.500;7.440;2022-11-11T20:33:53;11.70;99.90
2977;DHT22;1498;51.500;7.440;2022-11-11T20:36:20;11.70;99.90
2977;DHT22;1498;51.500;7.440;2022-11-11T20:38:45;11.70;99.90
2977;DHT22;1498;51.500;7.440;2022-11-11T20:41:18;11.70;99.90
2977;DHT22;1498;51.500;7.440;2022-11-11T20:43:45;11.70;99.90
2977;DHT22;1498;51.500;7.440;2022-11-11T20:46:16;11.60;99.90
2977;DHT22;1498;51.500;7.440;2022-11-11T20:48:43;11.70;99.90
2977;DHT22;1498;51.500;7.440;2022-11-11T20:51:17;11.70;99.90
2977;DHT22;1498;51.500;7.440;2022-11-11T20:53:43;11.70;99.90
2977;DHT22;1498;51.500;7.440;2022-11-11T20:56:11;11.70;99.90
2977;DHT22;1498;51.500;7.440;2022-11-11T20:58:37;11.70;99.90
2977;DHT22;1498;51.500;7.440;2022-11-11T21:01:08;11.70;99.90
2977;DHT22;1498;51.500;7.440;2022-11-11T21:03:34;11.70;99.90
2977;DHT22;1498;51.500;7.440;2022-11-11T21:06:03;11.80;99.90
2977;DHT22;1498;51.500;7.440;2022-11-11T21:08:29;11.80;99.90
2977;DHT22;1498;51.500;7.440;2022-11-11T21:10:56;11.80;99.90
2977;DHT22;1498;51.500;7.440;2022-11-11T21:13:21;11.70;99.90
2977;DHT22;1498;51.500;7.440;2022-11-11T21:15:47;11.60;99.90
2977;DHT22;1498;51.500;7.440;2022-11-11T21:18:13;11.60;99.90
2977;DHT22;1498;51.500;7.440;2022-11-11T21:20:38;11.60;99.90
2977;DHT22;1498;51.500;7.440;2022-11-11T21:23:04;11.60;99.90
2977;DHT22;1498;51.500;7.440;2022-11-11T21:25:33;11.60;99.90
2977;DHT22;1498;51.500;7.440;2022-11-11T21:28:01;11.60;99.90
2977;DHT22;1498;51.500;7.440;2022-11-11T21:30:30;11.70;99.90
2977;DHT22;1498;51.500;7.440;2022-11-11T21:32:55;11.70;99.90
2977;DHT22;1498;51.500;7.440;2022-11-11T21:35:21;11.80;99.90
2977;DHT22;1498;51.500;7.440;2022-11-11T21:37:49;11.80;99.90
2977;DHT22;1498;51.500;7.440;2022-11-11T21:40:15;11.90;99.90
2977;DHT22;1498;51.500;7.440;2022-11-11T21:42:40;11.90;99.90
2977;DHT22;1498;51.500;7.440;2022-11-11T21:45:06;11.90;99.90
2977;DHT22;1498;51.500;7.440;2022-11-11T21:47:32;12.00;99.90
2977;DHT22;1498;51.500;7.440;2022-11-11T21:49:57;12.10;99.90
2977;DHT22;1498;51.500;7.440;2022-11-11T21:52:23;12.10;99.90
2977;DHT22;1498;51.500;7.440;2022-11-11T21:54:48;12.10;99.90
2977;DHT22;1498;51.500;7.440;2022-11-11T21:57:14;12.10;99.90
2977;DHT22;1498;51.500;7.440;2022-11-11T21:59:39;12.00;99.90
2977;DHT22;1498;51.500;7.440;2022-11-11T22:02:05;11.90;99.90
2977;DHT22;1498;51.500;7.440;2022-11-11T22:04:31;11.90;99.90
2977;DHT22;1498;51.500;7.440;2022-11-11T22:06:56;11.80;99.90
2977;DHT22;1498;51.500;7.440;2022-11-11T22:09:22;11.80;99.90
2977;DHT22;1498;51.500;7.440;2022-11-11T22:11:47;11.80;99.90
2977;DHT22;1498;51.500;7.440;2022-11-11T22:14:13;11.70;99.90
2977;DHT22;1498;51.500;7.440;2022-11-11T22:16:39;11.70;99.90
2977;DHT22;1498;51.500;7.440;2022-11-11T22:19:06;11.70;99.90
2977;DHT22;1498;51.500;7.440;2022-11-11T22:21:38;11.60;99.90
2977;DHT22;1498;51.500;7.440;2022-11-11T22:24:06;11.60;99.90
2977;DHT22;1498;51.500;7.440;2022-11-11T22:26:38;11.50;99.90
2977;DHT22;1498;51.500;7.440;2022-11-11T22:29:06;11.50;99.90
2977;DHT22;1498;51.500;7.440;2022-11-11T22:31:33;11.50;99.90